E38

Alpine-Casparis Municipal Airport

Alpine, Texas, USA
METAR KE38 151215Z AUTO 23006KT 10SM CLR 19/15 A3015 RMK AO2 T01870153
Observed Flight Rules
Aug-15 @ 12:15 UTC (25 minutes ago) Visual Flight Rules
Wind Visibility Clouds
230° at 6 knots 10 miles
  • Clear skies
Temperatures Readings
Current 19°C / 66°F
Dewpoint 15°C / 59°F
Humidity 78%
Altimeter 30.15" Hg
Pressure 1021 hPa
Elevation 1376
METAR KE38 151215Z AUTO 23006KT 10SM CLR 19/15 A3015 RMK AO2 T01870153
Observed Flight Rules
Aug-15 @ 12:15 UTC
(25 minutes ago)
VFR
Wind Visibility
230° at 6 knots 10 miles
Clouds
  • Clear skies
Temperature Dewpoint
19°C / 66°F 15°C / 59°F
Humidity Altimeter Pressure
78% 30.15" Hg 1021 hPa